Map

Track Data

SID SEASON NUMBER BASIN SUBBASIN NAME ISO_TIME NATURE LAT LON WMO_WIND WMO_PRES WMO_AGENCY TRACK_TYPE DIST2LAND LANDFALL IFLAG USA_AGENCY USA_ATCF_ID USA_LAT USA_LON USA_RECORD USA_STATUS USA_WIND USA_PRES USA_SSHS USA_R34_NE USA_R34_SE USA_R34_SW USA_R34_NW USA_R50_NE USA_R50_SE USA_R50_SW USA_R50_NW USA_R64_NE USA_R64_SE USA_R64_SW USA_R64_NW USA_POCI USA_ROCI USA_RMW USA_EYE TOKYO_LAT TOKYO_LON TOKYO_GRADE TOKYO_WIND TOKYO_PRES TOKYO_R50_DIR TOKYO_R50_LONG TOKYO_R50_SHORT TOKYO_R30_DIR TOKYO_R30_LONG TOKYO_R30_SHORT TOKYO_LAND CMA_LAT CMA_LON CMA_CAT CMA_WIND CMA_PRES HKO_LAT HKO_LON HKO_CAT HKO_WIND HKO_PRES NEWDELHI_LAT NEWDELHI_LON NEWDELHI_GRADE NEWDELHI_WIND NEWDELHI_PRES NEWDELHI_CI NEWDELHI_DP NEWDELHI_POCI REUNION_LAT REUNION_LON REUNION_TYPE REUNION_WIND REUNION_PRES REUNION_TNUM REUNION_CI REUNION_RMW REUNION_R34_NE REUNION_R34_SE REUNION_R34_SW REUNION_R34_NW REUNION_R50_NE REUNION_R50_SE REUNION_R50_SW REUNION_R50_NW REUNION_R64_NE REUNION_R64_SE REUNION_R64_SW REUNION_R64_NW BOM_LAT BOM_LON BOM_TYPE BOM_WIND BOM_PRES BOM_TNUM BOM_CI BOM_RMW BOM_R34_NE BOM_R34_SE BOM_R34_SW BOM_R34_NW BOM_R50_NE BOM_R50_SE BOM_R50_SW BOM_R50_NW BOM_R64_NE BOM_R64_SE BOM_R64_SW BOM_R64_NW BOM_ROCI BOM_POCI BOM_EYE BOM_POS_METHOD BOM_PRES_METHOD NADI_LAT NADI_LON NADI_CAT NADI_WIND NADI_PRES WELLINGTON_LAT WELLINGTON_LON WELLINGTON_WIND WELLINGTON_PRES DS824_LAT DS824_LON DS824_STAGE DS824_WIND DS824_PRES TD9636_LAT TD9636_LON TD9636_STAGE TD9636_WIND TD9636_PRES TD9635_LAT TD9635_LON TD9635_WIND TD9635_PRES TD9635_ROCI NEUMANN_LAT NEUMANN_LON NEUMANN_CLASS NEUMANN_WIND NEUMANN_PRES MLC_LAT MLC_LON MLC_CLASS MLC_WIND MLC_PRES USA_GUST BOM_GUST BOM_GUST_PER REUNION_GUST REUNION_GUST_PER USA_SEAHGT USA_SEARAD_NE USA_SEARAD_SE USA_SEARAD_SW USA_SEARAD_NW STORM_SPEED STORM_DIR
1927086S16114 1927 19 SI WA NOT_NAMED 1927-03-26 12:00:00 NR -15.5000 113.800 main 647 642 __________O___ -1 -15.5000 113.800 7 3 228
1927086S16114 1927 19 SI WA NOT_NAMED 1927-03-26 15:00:00 NR -15.6094 113.675 main 642 638 __________P___ -1 -15.6094 113.675 7 3 228
1927086S16114 1927 19 SI WA NOT_NAMED 1927-03-26 18:00:00 NR -15.7249 113.540 main 644 634 __________P___ -1 -15.7249 113.540 7 4 229
1927086S16114 1927 19 SI WA NOT_NAMED 1927-03-26 21:00:00 NR -15.8531 113.385 main 630 627 __________P___ -1 -15.8531 113.385 7 4 230
1927086S16114 1927 19 SI WA NOT_NAMED 1927-03-27 00:00:00 NR -16.0000 113.200 main 632 624 __________O___ -1 -16.0000 113.200 7 5 231
1927086S16114 1927 19 SI WA NOT_NAMED 1927-03-27 03:00:00 NR -16.1704 112.979 main 624 621 __________P___ -1 -16.1704 112.979 7 6 231
1927086S16114 1927 19 SI WA NOT_NAMED 1927-03-27 06:00:00 NR -16.3626 112.730 main 623 613 __________P___ -1 -16.3626 112.730 7 6 231
1927086S16114 1927 19 SI WA NOT_NAMED 1927-03-27 09:00:00 NR -16.5735 112.466 main 613 600 __________P___ -1 -16.5735 112.466 7 7 229
1927086S16114 1927 19 SI WA NOT_NAMED 1927-03-27 12:00:00 NR -16.8000 112.200 main 600 586 __________O___ -1 -16.8000 112.200 7 7 228
1927086S16114 1927 19 SI WA NOT_NAMED 1927-03-27 15:00:00 NR -17.0275 111.934 main 590 568 __________P___ -1 -17.0275 111.934 7 7 227
1927086S16114 1927 19 SI WA NOT_NAMED 1927-03-27 18:00:00 NR -17.2701 111.670 main 568 557 __________P___ -1 -17.2701 111.670 7 7 224
1927086S16114 1927 19 SI WA NOT_NAMED 1927-03-27 21:00:00 NR -17.5276 111.421 main 562 544 __________P___ -1 -17.5276 111.421 7 7 220
1927086S16114 1927 19 SI WA NOT_NAMED 1927-03-28 00:00:00 NR -17.8000 111.200 main 544 528 __________O___ -1 -17.8000 111.200 7 7 214
1927086S16114 1927 19 SI WA NOT_NAMED 1927-03-28 03:00:00 NR -18.0895 111.017 main 528 507 __________P___ -1 -18.0895 111.017 7 7 208
1927086S16114 1927 19 SI WA NOT_NAMED 1927-03-28 06:00:00 NR -18.3923 110.862 main 507 496 __________P___ -1 -18.3923 110.862 7 7 204
1927086S16114 1927 19 SI WA NOT_NAMED 1927-03-28 09:00:00 NR -18.6989 110.726 main 496 480 __________P___ -1 -18.6989 110.726 7 7 202
1927086S16114 1927 19 SI WA NOT_NAMED 1927-03-28 12:00:00 NR -19.0000 110.600 main 480 472 __________O___ -1 -19.0000 110.600 7 6 208
1927086S16114 1927 19 SI WA NOT_NAMED 1927-03-28 15:00:00 NR -19.2335 110.432 main 481 469 __________P___ -1 -19.2335 110.432 7 6 213
1927086S16114 1927 19 SI WA NOT_NAMED 1927-03-28 18:00:00 NR -19.4676 110.276 main 469 465 __________P___ -1 -19.4676 110.276 7 6 207
1927086S16114 1927 19 SI WA NOT_NAMED 1927-03-28 21:00:00 NR -19.7429 110.157 main 465 452 __________P___ -1 -19.7429 110.157 7 7 194
1927086S16114 1927 19 SI WA NOT_NAMED 1927-03-29 00:00:00 NR -20.1000 110.100 main 452 425 __________O___ -1 -20.1000 110.100 7 8 182
1927086S16114 1927 19 SI WA NOT_NAMED 1927-03-29 03:00:00 NR -20.5807 110.127 main 425 388 __________P___ -1 -20.5807 110.127 7 11 174
1927086S16114 1927 19 SI WA NOT_NAMED 1927-03-29 06:00:00 NR -21.1451 110.217 main 388 354 __________P___ -1 -21.1451 110.217 7 12 170
1927086S16114 1927 19 SI WA NOT_NAMED 1927-03-29 09:00:00 NR -21.7620 110.349 main 351 319 __________P___ -1 -21.7620 110.349 7 13 168
1927086S16114 1927 19 SI WA NOT_NAMED 1927-03-29 12:00:00 NR -22.4000 110.500 main 319 299 __________O___ -1 -22.4000 110.500 7 13 166
1927086S16114 1927 19 SI WA NOT_NAMED 1927-03-29 15:00:00 NR -23.0148 110.691 main 300 266 __________P___ -1 -23.0148 110.691 7 13 164
1927086S16114 1927 19 SI WA NOT_NAMED 1927-03-29 18:00:00 NR -23.6426 110.887 main 266 244 __________P___ -1 -23.6426 110.887 7 13 166
1927086S16114 1927 19 SI WA NOT_NAMED 1927-03-29 21:00:00 NR -24.2741 111.040 main 243 232 __________P___ -1 -24.2741 111.040 7 13 171
1927086S16114 1927 19 SI WA NOT_NAMED 1927-03-30 00:00:00 NR -24.9000 111.100 main 238 234 __________O___ -1 -24.9000 111.100 7 12 182
1927086S16114 1927 19 SI WA NOT_NAMED 1927-03-30 03:00:00 NR -25.4870 111.002 main 239 236 __________P___ -1 -25.4870 111.002 7 12 193
1927086S16114 1927 19 SI WA NOT_NAMED 1927-03-30 06:00:00 NR -26.0703 110.807 main 249 249 __________P___ -1 -26.0703 110.807 7 13 199
1927086S16114 1927 19 SI WA NOT_NAMED 1927-03-30 09:00:00 NR -26.6684 110.558 main 272 272 __________P___ -1 -26.6684 110.558 7 13 200
1927086S16114 1927 19 SI WA NOT_NAMED 1927-03-30 12:00:00 NR -27.3000 110.300 main 317 317 __________O___ -1 -27.3000 110.300 7 14 200
1927086S16114 1927 19 SI WA NOT_NAMED 1927-03-30 15:00:00 NR -28.0093 109.999 main 377 377 __________P___ -1 -28.0093 109.999 7 15 200
1927086S16114 1927 19 SI WA NOT_NAMED 1927-03-30 18:00:00 NR -28.7496 109.712 main 442 442 __________P___ -1 -28.7496 109.712 7 15 196
1927086S16114 1927 19 SI WA NOT_NAMED 1927-03-30 21:00:00 NR -29.4900 109.519 main 483 483 __________P___ -1 -29.4900 109.519 7 15 187
1927086S16114 1927 19 SI WA NOT_NAMED 1927-03-31 00:00:00 NR -30.2000 109.500 main 512 512 __________O___ -1 -30.2000 109.500 7 14 173
1927086S16114 1927 19 SI WA NOT_NAMED 1927-03-31 03:00:00 NR -30.8395 109.720 main 515 486 __________P___ -1 -30.8395 109.720 7 14 157
1927086S16114 1927 19 SI WA NOT_NAMED 1927-03-31 06:00:00 NR -31.4444 110.128 main 486 447 __________P___ -1 -31.4444 110.128 7 14 146
1927086S16114 1927 19 SI WA NOT_NAMED 1927-03-31 09:00:00 NR -32.0269 110.672 main 439 361 __________P___ -1 -32.0269 110.672 7 15 139
1927086S16114 1927 19 SI WA NOT_NAMED 1927-03-31 12:00:00 NR -32.6000 111.300 main 361 292 __________O___ -1 -32.6000 111.300 7 16 136
1927086S16114 1927 19 SI WA NOT_NAMED 1927-03-31 15:00:00 NR -33.1744 111.966 main 281 221 __________P___ -1 -33.1744 111.966 7 16 135
1927086S16114 1927 19 SI WA NOT_NAMED 1927-03-31 18:00:00 NR -33.7507 112.659 main 212 156 __________P___ -1 -33.7507 112.659 7 16 135
1927086S16114 1927 19 SI WA NOT_NAMED 1927-03-31 21:00:00 NR -34.3266 113.372 main 148 106 __________P___ -1 -34.3266 113.372 7 17 134
1927086S16114 1927 19 SI WA NOT_NAMED 1927-04-01 00:00:00 NR -34.9000 114.100 main 106 __________O___ -1 -34.9000 114.100 7 17 134

About IBTrACS Database

This database is a web-friendly format of International Best Track Archive for Climate Stewardship (IBTrACS), a global best track data archive curated by NOAA dating back to 1842.

Updated: 2021-12-03